Time;durP1;ratioP1;P1;durP2;ratioP2;P2;SDS_P1;SDS_P2;PMS_P1;PMS_P2;Temp;Humidity;BMP_temperature;BMP_pressure;BME280_temperature;BME280_humidity;BME280_pressure;Samples;Min_cycle;Max_cycle;Signal;HPM_P1;HPM_P2
2024/01/23 00:01:07;;;;;;;;;;;7.00;99.90;;;;;;2620579;54;19941;-80
2024/01/23 00:03:37;;;;;;;;;;;7.00;99.90;;;;;;2620665;54;19958;-79
2024/01/23 00:06:07;;;;;;;;;;;6.90;99.90;;;;;;2619434;54;19939;-79
2024/01/23 00:08:37;;;;;;;;;;;7.00;99.90;;;;;;2620264;47;19962;-79
2024/01/23 00:11:08;;;;;;;;;;;7.00;99.90;;;;;;2625447;47;19959;-79
2024/01/23 00:13:38;;;;;;;;;;;6.90;99.90;;;;;;2618968;39;20358;-78
2024/01/23 00:16:10;;;;;;;;;;;6.90;99.90;;;;;;2618292;47;19946;-80
2024/01/23 00:18:40;;;;;;;;;;;7.00;99.90;;;;;;2618548;47;19947;-81
2024/01/23 00:21:10;;;;;;;;;;;7.00;99.90;;;;;;2618265;47;20060;-77
2024/01/23 00:23:40;;;;;;;;;;;7.00;99.90;;;;;;2618013;47;19946;-78
2024/01/23 00:26:10;;;;;;;;;;;7.00;99.90;;;;;;2616880;47;19942;-78
2024/01/23 00:28:40;;;;;;;;;;;7.00;99.90;;;;;;2616529;47;19938;-77
2024/01/23 00:31:13;;;;;;;;;;;7.00;99.90;;;;;;2616615;47;19963;-76
2024/01/23 00:33:42;;;;;;;;;;;7.00;99.90;;;;;;2617194;47;19950;-77
2024/01/23 00:36:12;;;;;;;;;;;7.00;99.90;;;;;;2617606;54;19946;-77
2024/01/23 00:38:42;;;;;;;;;;;7.00;99.90;;;;;;2617830;47;19953;-79
2024/01/23 00:41:12;;;;;;;;;;;7.00;99.90;;;;;;2618117;54;20059;-80
2024/01/23 00:43:42;;;;;;;;;;;6.90;99.90;;;;;;2618288;47;19951;-80
2024/01/23 00:46:14;;;;;;;;;;;6.90;99.90;;;;;;2619626;54;19954;-78
2024/01/23 00:48:44;;;;;;;;;;;6.90;99.90;;;;;;2618810;39;20388;-79
2024/01/23 00:51:15;;;;;;;;;;;6.90;99.90;;;;;;2621214;47;19958;-80
2024/01/23 00:53:45;;;;;;;;;;;6.80;99.90;;;;;;2618231;47;19946;-81
2024/01/23 00:56:15;;;;;;;;;;;6.80;99.90;;;;;;2618409;47;19954;-79
2024/01/23 00:58:45;;;;;;;;;;;6.80;99.90;;;;;;2619289;47;19986;-79
2024/01/23 01:01:17;;;;;;;;;;;6.70;99.90;;;;;;2624937;47;20026;-79
2024/01/23 01:03:47;;;;;;;;;;;6.70;99.90;;;;;;2618792;47;20399;-79
2024/01/23 01:06:17;;;;;;;;;;;6.80;99.90;;;;;;2618596;47;19939;-79
2024/01/23 01:08:47;;;;;;;;;;;6.70;99.90;;;;;;2619182;47;19946;-79
2024/01/23 01:11:17;;;;;;;;;;;6.70;99.90;;;;;;2618111;47;19943;-79
2024/01/23 01:13:47;;;;;;;;;;;6.70;99.90;;;;;;2620411;47;19953;-80
2024/01/23 01:16:19;;;;;;;;;;;6.80;99.90;;;;;;2619363;31;20412;-79
2024/01/23 01:18:49;;;;;;;;;;;6.90;99.90;;;;;;2618840;47;19953;-78
2024/01/23 01:21:19;;;;;;;;;;;6.90;99.90;;;;;;2626358;54;19946;-78
2024/01/23 01:23:49;;;;;;;;;;;6.90;99.90;;;;;;2620783;54;20002;-78
2024/01/23 01:26:19;;;;;;;;;;;7.00;99.90;;;;;;2618551;47;19956;-79
2024/01/23 01:28:49;;;;;;;;;;;6.90;99.90;;;;;;2622105;54;19979;-79
2024/01/23 01:31:21;;;;;;;;;;;7.00;99.90;;;;;;2625804;54;19930;-80
2024/01/23 01:33:51;;;;;;;;;;;7.10;99.90;;;;;;2620128;54;19997;-78
2024/01/23 01:36:22;;;;;;;;;;;7.10;99.90;;;;;;2618487;47;19938;-79
2024/01/23 01:38:51;;;;;;;;;;;7.20;99.90;;;;;;2619258;47;19938;-79
2024/01/23 01:41:21;;;;;;;;;;;7.30;99.90;;;;;;2619356;47;19945;-79
2024/01/23 01:43:51;;;;;;;;;;;7.30;99.90;;;;;;2618503;54;19994;-80
2024/01/23 01:46:25;;;;;;;;;;;7.30;99.90;;;;;;2624557;47;19954;-81
2024/01/23 01:48:55;;;;;;;;;;;7.30;99.90;;;;;;2618232;47;19947;-79
2024/01/23 01:51:27;;;;;;;;;;;7.40;99.90;;;;;;2617675;49;19953;-79
2024/01/23 01:53:58;;;;;;;;;;;7.40;99.90;;;;;;2617440;47;19947;-79
2024/01/23 01:56:29;;;;;;;;;;;7.40;99.90;;;;;;2616890;54;19947;-80
2024/01/23 01:58:59;;;;;;;;;;;7.40;99.90;;;;;;2619651;54;19939;-80
2024/01/23 02:01:32;;;;;;;;;;;7.60;99.90;;;;;;2620530;47;19939;-80
2024/01/23 02:04:01;;;;;;;;;;;7.70;99.90;;;;;;2622717;51;20054;-79
2024/01/23 02:06:30;;;;;;;;;;;7.40;99.90;;;;;;2621880;54;20021;-80
2024/01/23 02:09:00;;;;;;;;;;;7.40;99.90;;;;;;2624962;39;20368;-81
2024/01/23 02:11:31;;;;;;;;;;;7.40;99.90;;;;;;2618955;39;20369;-80
2024/01/23 02:14:01;;;;;;;;;;;7.40;99.90;;;;;;2618174;47;19946;-78
2024/01/23 02:16:33;;;;;;;;;;;7.50;99.90;;;;;;2618227;54;20312;-82
2024/01/23 02:19:03;;;;;;;;;;;7.40;99.90;;;;;;2618169;47;20034;-78
2024/01/23 02:21:33;;;;;;;;;;;7.40;99.90;;;;;;2621108;47;19954;-81
2024/01/23 02:24:06;;;;;;;;;;;7.50;99.90;;;;;;2622362;54;20418;-77
2024/01/23 02:26:36;;;;;;;;;;;7.50;99.90;;;;;;2627814;54;19967;-81
2024/01/23 02:29:06;;;;;;;;;;;7.50;99.90;;;;;;2618684;47;19994;-80
2024/01/23 02:31:36;;;;;;;;;;;7.50;99.90;;;;;;2618384;54;20445;-82
2024/01/23 02:34:06;;;;;;;;;;;7.50;99.90;;;;;;2619862;54;19942;-81
2024/01/23 02:36:39;;;;;;;;;;;7.60;99.90;;;;;;2619206;39;20346;-81
2024/01/23 02:39:12;;;;;;;;;;;7.50;99.90;;;;;;2618146;46;19987;-80
2024/01/23 02:41:42;;;;;;;;;;;7.50;99.90;;;;;;2618063;47;19987;-80
2024/01/23 02:44:12;;;;;;;;;;;7.50;99.90;;;;;;2618119;47;19942;-80
2024/01/23 02:46:43;;;;;;;;;;;7.60;99.90;;;;;;2618266;47;19947;-79
2024/01/23 02:49:13;;;;;;;;;;;7.50;99.90;;;;;;2618594;47;19973;-81
2024/01/23 02:51:43;;;;;;;;;;;7.50;99.90;;;;;;2617426;47;20038;-80
2024/01/23 02:54:16;;;;;;;;;;;7.50;99.90;;;;;;2617656;47;20552;-80
2024/01/23 02:56:46;;;;;;;;;;;7.50;99.90;;;;;;2619634;47;20007;-81
2024/01/23 02:59:17;;;;;;;;;;;7.60;99.90;;;;;;2620508;54;19990;-80
2024/01/23 03:01:47;;;;;;;;;;;7.50;99.90;;;;;;2617814;47;19965;-80
2024/01/23 03:04:16;;;;;;;;;;;7.50;99.90;;;;;;2618380;54;20031;-80
2024/01/23 03:06:46;;;;;;;;;;;7.50;99.90;;;;;;2619937;47;19991;-80
2024/01/23 03:09:19;;;;;;;;;;;7.50;99.90;;;;;;2620219;47;20034;-80
2024/01/23 03:11:49;;;;;;;;;;;7.50;99.90;;;;;;2619178;47;19946;-81
2024/01/23 03:14:19;;;;;;;;;;;7.50;99.90;;;;;;2619237;47;19958;-80
2024/01/23 03:16:49;;;;;;;;;;;8.20;99.90;;;;;;2620339;39;20335;-79
2024/01/23 03:19:19;;;;;;;;;;;7.40;99.90;;;;;;2620364;54;19957;-78
2024/01/23 03:21:49;;;;;;;;;;;7.40;99.90;;;;;;2625550;47;19927;-79
2024/01/23 03:24:21;;;;;;;;;;;7.40;99.90;;;;;;2621830;39;20338;-79
2024/01/23 03:26:51;;;;;;;;;;;7.40;99.90;;;;;;2620541;54;19947;-79
2024/01/23 03:29:21;;;;;;;;;;;7.30;99.90;;;;;;2621186;39;20337;-78
2024/01/23 03:31:51;;;;;;;;;;;7.20;99.90;;;;;;2626916;47;19927;-79
2024/01/23 03:34:22;;;;;;;;;;;7.20;99.90;;;;;;2621047;47;19951;-80
2024/01/23 03:36:52;;;;;;;;;;;6.70;99.90;;;;;;2620723;47;19939;-78
2024/01/23 03:39:24;;;;;;;;;;;7.10;99.90;;;;;;2620777;47;19938;-79
2024/01/23 03:41:54;;;;;;;;;;;7.10;99.90;;;;;;2622062;54;19951;-79
2024/01/23 03:44:24;;;;;;;;;;;7.10;99.90;;;;;;2623474;47;19939;-79
2024/01/23 03:46:55;;;;;;;;;;;7.00;99.90;;;;;;2623448;54;19938;-78
2024/01/23 03:49:25;;;;;;;;;;;6.90;99.90;;;;;;2620544;54;19943;-79
2024/01/23 03:51:55;;;;;;;;;;;6.90;99.90;;;;;;2620419;54;20039;-79
2024/01/23 03:54:28;;;;;;;;;;;7.00;99.90;;;;;;2620764;54;19983;-81
2024/01/23 03:56:57;;;;;;;;;;;6.80;99.90;;;;;;2619777;54;19946;-82
2024/01/23 03:59:27;;;;;;;;;;;7.00;99.90;;;;;;2619985;47;19939;-78
2024/01/23 04:01:57;;;;;;;;;;;7.00;99.90;;;;;;2620550;47;19946;-79
2024/01/23 04:04:27;;;;;;;;;;;6.80;99.90;;;;;;2621421;39;20059;-80
2024/01/23 04:06:57;;;;;;;;;;;6.80;99.90;;;;;;2621490;54;19953;-80
2024/01/23 04:09:29;;;;;;;;;;;7.00;99.90;;;;;;2623119;54;19951;-79
2024/01/23 04:11:59;;;;;;;;;;;6.90;99.90;;;;;;2621971;39;20358;-81
2024/01/23 04:14:29;;;;;;;;;;;6.90;99.90;;;;;;2622187;54;19954;-81
2024/01/23 04:16:59;;;;;;;;;;;6.90;99.90;;;;;;2620832;47;20548;-79
2024/01/23 04:19:29;;;;;;;;;;;6.80;99.90;;;;;;2620434;47;19939;-79
2024/01/23 04:21:59;;;;;;;;;;;6.80;99.90;;;;;;2621491;47;19979;-78
2024/01/23 04:24:31;;;;;;;;;;;6.80;99.90;;;;;;2622161;47;20027;-79
2024/01/23 04:27:02;;;;;;;;;;;6.80;99.90;;;;;;2620592;47;19939;-78
2024/01/23 04:29:32;;;;;;;;;;;6.80;99.90;;;;;;2619616;47;19945;-82
2024/01/23 04:32:01;;;;;;;;;;;6.80;99.90;;;;;;2621609;54;19943;-77
2024/01/23 04:34:31;;;;;;;;;;;6.70;99.90;;;;;;2619699;47;19938;-78
2024/01/23 04:37:01;;;;;;;;;;;6.70;99.90;;;;;;2625390;54;19947;-77
2024/01/23 04:39:34;;;;;;;;;;;6.70;99.90;;;;;;2619489;39;20479;-77
2024/01/23 04:42:04;;;;;;;;;;;6.70;99.90;;;;;;2622281;54;19938;-78
2024/01/23 04:44:34;;;;;;;;;;;6.70;99.90;;;;;;2618719;54;20513;-78
2024/01/23 04:47:04;;;;;;;;;;;7.10;99.90;;;;;;2622902;54;19953;-78
2024/01/23 04:49:34;;;;;;;;;;;6.70;99.90;;;;;;2619662;54;19942;-79
2024/01/23 04:52:04;;;;;;;;;;;6.70;99.90;;;;;;2619480;54;19947;-78
2024/01/23 04:54:37;;;;;;;;;;;6.70;99.90;;;;;;2621842;54;19953;-79
2024/01/23 04:57:07;;;;;;;;;;;6.80;99.90;;;;;;2620912;47;19947;-80
2024/01/23 04:59:37;;;;;;;;;;;6.60;99.90;;;;;;2620979;47;20422;-79
2024/01/23 05:02:07;;;;;;;;;;;6.70;99.90;;;;;;2623248;47;19953;-79
2024/01/23 05:04:37;;;;;;;;;;;6.60;99.90;;;;;;2621321;47;19954;-80
2024/01/23 05:07:08;;;;;;;;;;;6.60;99.90;;;;;;2622061;50;19946;-79
2024/01/23 05:09:40;;;;;;;;;;;6.60;99.90;;;;;;2620295;54;20030;-78
2024/01/23 05:12:11;;;;;;;;;;;6.60;99.90;;;;;;2618174;47;21204;-75
2024/01/23 05:14:40;;;;;;;;;;;6.50;99.90;;;;;;2618199;54;19939;-79
2024/01/23 05:17:10;;;;;;;;;;;6.50;99.90;;;;;;2618188;47;19945;-77
2024/01/23 05:19:44;;;;;;;;;;;6.60;99.90;;;;;;2620456;39;20338;-78
2024/01/23 05:22:15;;;;;;;;;;;6.60;99.90;;;;;;2622449;47;19990;-80
2024/01/23 05:24:48;;;;;;;;;;;6.60;99.90;;;;;;2623538;47;19938;-80
2024/01/23 05:27:18;;;;;;;;;;;6.50;99.90;;;;;;2624320;47;19962;-80
2024/01/23 05:29:48;;;;;;;;;;;6.60;99.90;;;;;;2623017;47;19927;-83
2024/01/23 05:32:17;;;;;;;;;;;6.60;99.90;;;;;;2624823;47;19946;-80
2024/01/23 05:34:47;;;;;;;;;;;6.60;99.90;;;;;;2623897;47;19939;-81
2024/01/23 05:37:19;;;;;;;;;;;6.60;99.90;;;;;;2624413;47;19947;-79
2024/01/23 05:39:52;;;;;;;;;;;6.60;99.90;;;;;;2625191;54;19970;-81
2024/01/23 05:42:22;;;;;;;;;;;6.70;99.90;;;;;;2628410;47;19943;-80
2024/01/23 05:44:52;;;;;;;;;;;6.70;99.90;;;;;;2622424;54;20445;-76
2024/01/23 05:47:22;;;;;;;;;;;6.70;99.90;;;;;;2619114;47;19947;-79
2024/01/23 05:49:52;;;;;;;;;;;6.70;99.90;;;;;;2622029;54;19995;-78
2024/01/23 05:52:21;;;;;;;;;;;6.70;99.90;;;;;;2623393;54;19954;-78
2024/01/23 05:54:54;;;;;;;;;;;6.60;99.90;;;;;;2621642;54;19987;-78
2024/01/23 05:57:24;;;;;;;;;;;6.70;99.90;;;;;;2619123;54;19939;-76
2024/01/23 05:59:54;;;;;;;;;;;6.70;99.90;;;;;;2619169;47;19934;-76
2024/01/23 06:02:24;;;;;;;;;;;6.70;99.90;;;;;;2619160;54;19934;-77
2024/01/23 06:04:54;;;;;;;;;;;6.80;99.90;;;;;;2619254;47;19950;-78
2024/01/23 06:07:26;;;;;;;;;;;6.70;99.90;;;;;;2619945;47;19951;-77
2024/01/23 06:09:59;;;;;;;;;;;6.70;99.90;;;;;;2619081;54;19966;-76
2024/01/23 06:12:29;;;;;;;;;;;6.80;99.90;;;;;;2619628;54;19991;-78
2024/01/23 06:14:59;;;;;;;;;;;6.80;99.90;;;;;;2620633;47;19951;-79
2024/01/23 06:17:29;;;;;;;;;;;6.80;99.90;;;;;;2621050;54;19946;-80
2024/01/23 06:20:01;;;;;;;;;;;6.80;99.90;;;;;;2620598;47;19939;-80
2024/01/23 06:22:30;;;;;;;;;;;6.80;99.90;;;;;;2620616;54;19946;-80
2024/01/23 06:25:07;;;;;;;;;;;6.80;99.90;;;;;;2622470;47;19946;-78
2024/01/23 06:27:37;;;;;;;;;;;6.70;99.90;;;;;;2620936;39;20440;-79
2024/01/23 06:30:11;;;;;;;;;;;6.70;99.90;;;;;;2620453;47;19950;-78
2024/01/23 06:32:41;;;;;;;;;;;6.70;99.90;;;;;;2621027;47;19953;-77
2024/01/23 06:35:11;;;;;;;;;;;6.70;99.90;;;;;;2620131;47;19954;-80
2024/01/23 06:37:41;;;;;;;;;;;6.70;99.90;;;;;;2620951;54;19994;-79
2024/01/23 06:40:14;;;;;;;;;;;6.70;99.90;;;;;;2619464;47;19938;-80
2024/01/23 06:42:44;;;;;;;;;;;6.60;99.90;;;;;;2620074;47;19947;-79
2024/01/23 06:45:17;;;;;;;;;;;6.60;99.90;;;;;;2621232;54;19947;-77
2024/01/23 06:47:49;;;;;;;;;;;6.50;99.90;;;;;;2623835;47;19947;-78
2024/01/23 06:50:19;;;;;;;;;;;7.40;99.90;;;;;;2623661;54;20467;-78
2024/01/23 06:52:48;;;;;;;;;;;6.50;99.90;;;;;;2620335;39;20318;-80
2024/01/23 06:55:21;;;;;;;;;;;6.60;99.90;;;;;;2619748;39;20450;-77
2024/01/23 06:57:51;;;;;;;;;;;6.40;99.90;;;;;;2623139;31;20497;-79
2024/01/23 07:00:21;;;;;;;;;;;6.30;99.90;;;;;;2620114;47;19951;-79
2024/01/23 07:02:51;;;;;;;;;;;6.30;99.90;;;;;;2620544;47;20465;-80
2024/01/23 07:05:20;;;;;;;;;;;6.30;99.90;;;;;;2621442;54;20085;-80
2024/01/23 07:07:50;;;;;;;;;;;6.30;99.90;;;;;;2621630;54;19939;-79
2024/01/23 07:10:23;;;;;;;;;;;6.30;99.90;;;;;;2617470;54;20114;-75
2024/01/23 07:12:53;;;;;;;;;;;6.20;99.90;;;;;;2617259;54;19999;-74
2024/01/23 07:15:23;;;;;;;;;;;6.20;99.90;;;;;;2616848;54;19946;-75
2024/01/23 07:17:53;;;;;;;;;;;6.10;99.90;;;;;;2617286;54;19945;-73
2024/01/23 07:20:23;;;;;;;;;;;6.10;99.90;;;;;;2617776;54;19953;-75
2024/01/23 07:22:53;;;;;;;;;;;6.10;99.90;;;;;;2616536;54;19946;-75
2024/01/23 07:25:25;;;;;;;;;;;6.10;99.90;;;;;;2616618;47;19946;-73
2024/01/23 07:27:55;;;;;;;;;;;6.20;99.90;;;;;;2617381;54;20030;-75
2024/01/23 07:30:25;;;;;;;;;;;6.10;99.90;;;;;;2617778;54;19942;-74
2024/01/23 07:32:55;;;;;;;;;;;6.10;99.90;;;;;;2618009;47;20469;-75
2024/01/23 07:35:25;;;;;;;;;;;6.20;99.90;;;;;;2617709;54;19946;-76
2024/01/23 07:37:55;;;;;;;;;;;6.20;99.90;;;;;;2618071;52;19962;-76
2024/01/23 07:40:27;;;;;;;;;;;6.20;99.90;;;;;;2621617;47;19943;-79
2024/01/23 07:42:57;;;;;;;;;;;6.20;99.90;;;;;;2624020;47;19939;-81
2024/01/23 07:45:27;;;;;;;;;;;6.60;99.90;;;;;;2624541;47;19942;-79
2024/01/23 07:47:57;;;;;;;;;;;6.20;99.90;;;;;;2620466;46;19966;-82
2024/01/23 07:50:27;;;;;;;;;;;6.20;99.90;;;;;;2626674;54;19943;-79
2024/01/23 07:52:57;;;;;;;;;;;6.20;99.90;;;;;;2624877;39;20330;-79
2024/01/23 07:55:29;;;;;;;;;;;6.20;99.90;;;;;;2620620;47;19946;-78
2024/01/23 07:57:59;;;;;;;;;;;6.20;99.90;;;;;;2621294;50;19991;-78
2024/01/23 08:00:29;;;;;;;;;;;6.30;99.90;;;;;;2620235;39;20340;-77
2024/01/23 08:02:58;;;;;;;;;;;5.60;99.90;;;;;;2618956;47;19946;-75
2024/01/23 08:05:29;;;;;;;;;;;6.30;99.90;;;;;;2618219;54;19973;-80
2024/01/23 08:07:59;;;;;;;;;;;6.30;99.90;;;;;;2620035;47;19946;-80
2024/01/23 08:10:31;;;;;;;;;;;6.30;99.90;;;;;;2620328;47;19943;-77
2024/01/23 08:13:02;;;;;;;;;;;6.30;99.90;;;;;;2619980;54;19946;-77
2024/01/23 08:15:32;;;;;;;;;;;6.60;99.90;;;;;;2620333;47;20452;-77
2024/01/23 08:18:03;;;;;;;;;;;6.30;99.90;;;;;;2619499;47;19945;-80
2024/01/23 08:20:34;;;;;;;;;;;6.30;99.90;;;;;;2620630;54;19951;-82
2024/01/23 08:23:04;;;;;;;;;;;6.40;99.90;;;;;;2621781;47;20003;-81
2024/01/23 08:25:37;;;;;;;;;;;6.40;99.90;;;;;;2627847;47;19939;-80
2024/01/23 08:28:07;;;;;;;;;;;6.40;99.90;;;;;;2627169;47;19964;-82
2024/01/23 08:30:36;;;;;;;;;;;6.40;99.90;;;;;;2626137;54;19923;-80
2024/01/23 08:33:06;;;;;;;;;;;6.40;99.90;;;;;;2622468;47;19939;-78
2024/01/23 08:35:38;;;;;;;;;;;6.40;99.90;;;;;;2620942;47;20535;-79
2024/01/23 08:38:09;;;;;;;;;;;6.50;99.90;;;;;;2622049;54;19976;-80
2024/01/23 08:40:45;;;;;;;;;;;6.50;99.90;;;;;;2620827;47;20499;-79
2024/01/23 08:43:15;;;;;;;;;;;6.40;99.90;;;;;;2620104;54;19939;-80
2024/01/23 08:45:45;;;;;;;;;;;6.40;99.90;;;;;;2621566;39;20329;-80
2024/01/23 08:48:19;;;;;;;;;;;6.40;99.90;;;;;;2618972;47;20410;-79
2024/01/23 08:50:50;;;;;;;;;;;6.40;99.90;;;;;;2620033;54;19954;-79
2024/01/23 08:53:20;;;;;;;;;;;6.50;99.90;;;;;;2618944;54;19945;-77
2024/01/23 08:55:53;;;;;;;;;;;6.50;99.90;;;;;;2622660;54;19934;-80
2024/01/23 08:58:25;;;;;;;;;;;6.50;99.90;;;;;;2623194;54;19943;-78
2024/01/23 09:00:55;;;;;;;;;;;6.60;99.90;;;;;;2619216;54;19978;-81
2024/01/23 09:03:25;;;;;;;;;;;6.60;99.90;;;;;;2619215;47;19946;-82
2024/01/23 09:05:55;;;;;;;;;;;6.60;99.90;;;;;;2619520;54;19990;-80
2024/01/23 09:08:25;;;;;;;;;;;6.60;99.90;;;;;;2620414;31;20424;-80
2024/01/23 09:10:57;;;;;;;;;;;6.60;99.90;;;;;;2619734;54;19954;-79
2024/01/23 09:13:27;;;;;;;;;;;6.70;99.90;;;;;;2620111;54;19979;-78
2024/01/23 09:15:57;;;;;;;;;;;6.70;99.90;;;;;;2619026;54;19951;-80
2024/01/23 09:18:27;;;;;;;;;;;6.70;99.90;;;;;;2623532;54;19971;-81
2024/01/23 09:20:58;;;;;;;;;;;6.80;99.90;;;;;;2620864;47;19951;-80
2024/01/23 09:23:28;;;;;;;;;;;6.80;99.90;;;;;;2620236;54;19946;-79
2024/01/23 09:26:01;;;;;;;;;;;7.00;99.90;;;;;;2619472;54;20457;-82
2024/01/23 09:28:31;;;;;;;;;;;6.90;99.90;;;;;;2620244;54;19939;-80
2024/01/23 09:31:01;;;;;;;;;;;6.90;99.90;;;;;;2619619;54;20437;-79
2024/01/23 09:33:30;;;;;;;;;;;7.00;99.90;;;;;;2619058;47;19942;-79
2024/01/23 09:36:01;;;;;;;;;;;7.00;99.90;;;;;;2619374;54;20003;-77
2024/01/23 09:38:31;;;;;;;;;;;7.00;99.90;;;;;;2619995;54;20063;-79
2024/01/23 09:41:11;;;;;;;;;;;7.10;99.90;;;;;;2617974;54;19990;-77
2024/01/23 09:43:42;;;;;;;;;;;7.10;99.90;;;;;;2618143;47;19947;-79
2024/01/23 09:46:14;;;;;;;;;;;7.10;99.90;;;;;;2617727;47;19947;-79
2024/01/23 09:48:45;;;;;;;;;;;7.20;99.90;;;;;;2617819;47;20454;-78
2024/01/23 09:51:15;;;;;;;;;;;7.20;99.90;;;;;;2619371;31;20581;-78
2024/01/23 09:53:46;;;;;;;;;;;7.30;99.90;;;;;;2618181;39;20350;-78
2024/01/23 09:56:19;;;;;;;;;;;7.30;99.90;;;;;;2617920;54;19953;-78
2024/01/23 09:58:50;;;;;;;;;;;7.40;99.90;;;;;;2617875;54;20534;-77
2024/01/23 10:01:21;;;;;;;;;;;7.50;99.90;;;;;;2620472;54;19978;-77
2024/01/23 10:03:56;;;;;;;;;;;7.50;99.90;;;;;;2622057;47;19939;-77
2024/01/23 10:06:26;;;;;;;;;;;7.30;99.90;;;;;;2617615;47;19957;-77
2024/01/23 10:08:56;;;;;;;;;;;7.60;99.90;;;;;;2617665;54;19938;-76
2024/01/23 10:11:28;;;;;;;;;;;7.60;99.90;;;;;;2617022;47;19951;-77
2024/01/23 10:13:58;;;;;;;;;;;7.60;99.90;;;;;;2617452;47;19958;-76
2024/01/23 10:16:28;;;;;;;;;;;7.70;99.90;;;;;;2617829;47;19961;-75
2024/01/23 10:18:59;;;;;;;;;;;7.70;99.90;;;;;;2618071;54;19994;-76
2024/01/23 10:21:29;;;;;;;;;;;7.80;99.90;;;;;;2617730;47;20071;-77
2024/01/23 10:23:59;;;;;;;;;;;7.80;99.90;;;;;;2617599;54;20448;-77
2024/01/23 10:26:33;;;;;;;;;;;7.90;99.90;;;;;;2617553;47;20426;-77
2024/01/23 10:29:04;;;;;;;;;;;7.90;99.90;;;;;;2617522;47;19939;-77
2024/01/23 10:31:37;;;;;;;;;;;8.50;99.90;;;;;;2618013;47;19953;-77
2024/01/23 10:34:07;;;;;;;;;;;8.00;99.90;;;;;;2617746;47;19945;-77
2024/01/23 10:36:38;;;;;;;;;;;8.00;99.90;;;;;;2618603;47;19953;-78
2024/01/23 10:39:10;;;;;;;;;;;8.20;99.90;;;;;;2620800;54;19950;-77
2024/01/23 10:41:44;;;;;;;;;;;8.30;99.90;;;;;;2623606;54;19951;-77
2024/01/23 10:44:15;;;;;;;;;;;8.40;99.90;;;;;;2620542;47;19938;-76
2024/01/23 10:46:45;;;;;;;;;;;8.40;99.90;;;;;;2620478;54;19970;-77
2024/01/23 10:49:15;;;;;;;;;;;8.40;99.90;;;;;;2618530;47;19942;-77
2024/01/23 10:51:47;;;;;;;;;;;8.50;99.90;;;;;;2618060;54;20506;-77
2024/01/23 10:54:21;;;;;;;;;;;8.50;99.90;;;;;;2619232;39;20418;-78
2024/01/23 10:56:57;;;;;;;;;;;8.60;99.90;;;;;;2620266;54;20475;-77
2024/01/23 10:59:29;;;;;;;;;;;8.70;99.90;;;;;;2617076;54;19935;-78
2024/01/23 11:02:04;;;;;;;;;;;8.90;99.90;;;;;;2618051;47;19950;-78
2024/01/23 11:04:34;;;;;;;;;;;8.90;99.90;;;;;;2620280;48;20371;-78
2024/01/23 11:07:10;;;;;;;;;;;9.00;99.90;;;;;;2618548;46;19995;-78
2024/01/23 11:09:43;;;;;;;;;;;9.10;99.90;;;;;;2618907;47;20446;-75
2024/01/23 11:12:19;;;;;;;;;;;9.10;99.90;;;;;;2625789;47;19985;-75
2024/01/23 11:14:53;;;;;;;;;;;9.20;99.90;;;;;;2618167;54;19995;-76
2024/01/23 11:17:23;;;;;;;;;;;9.30;99.90;;;;;;2619547;39;20353;-76
2024/01/23 11:20:06;;;;;;;;;;;9.40;99.90;;;;;;2618759;54;19938;-77
2024/01/23 11:22:37;;;;;;;;;;;9.50;99.90;;;;;;2618519;54;19946;-79
2024/01/23 11:25:07;;;;;;;;;;;9.60;99.90;;;;;;2617920;54;19945;-76
2024/01/23 11:27:40;;;;;;;;;;;9.50;99.90;;;;;;2618301;54;19953;-78
2024/01/23 11:30:12;;;;;;;;;;;9.50;99.90;;;;;;2618370;47;20045;-76
2024/01/23 11:32:43;;;;;;;;;;;9.50;99.90;;;;;;2620108;54;19946;-76
2024/01/23 11:35:14;;;;;;;;;;;9.40;99.90;;;;;;2618949;54;19953;-77
2024/01/23 11:37:46;;;;;;;;;;;9.30;99.90;;;;;;2620977;54;19946;-77
2024/01/23 11:40:33;;;;;;;;;;;9.30;99.90;;;;;;2621371;47;20029;-77
2024/01/23 11:43:07;;;;;;;;;;;9.30;99.90;;;;;;2618829;54;19947;-77
2024/01/23 11:45:38;;;;;;;;;;;9.30;99.90;;;;;;2620259;54;19946;-78
2024/01/23 11:48:09;;;;;;;;;;;9.30;99.90;;;;;;2620667;54;20071;-79
2024/01/23 11:50:39;;;;;;;;;;;9.30;99.90;;;;;;2620752;54;19939;-79
2024/01/23 11:53:10;;;;;;;;;;;9.20;99.90;;;;;;2619601;47;19968;-78
2024/01/23 11:55:41;;;;;;;;;;;9.30;99.90;;;;;;2619756;47;19939;-79
2024/01/23 11:58:14;;;;;;;;;;;9.30;99.90;;;;;;2619449;39;20036;-79
2024/01/23 12:00:44;;;;;;;;;;;9.30;99.90;;;;;;2620601;54;19943;-79
2024/01/23 12:03:20;;;;;;;;;;;9.20;99.90;;;;;;2623921;54;19939;-79
2024/01/23 12:05:53;;;;;;;;;;;9.30;99.90;;;;;;2623109;47;20701;-78
2024/01/23 12:08:25;;;;;;;;;;;9.30;99.90;;;;;;2619932;47;20434;-81
2024/01/23 12:10:55;;;;;;;;;;;9.20;99.90;;;;;;2620243;31;20507;-80
2024/01/23 12:13:28;;;;;;;;;;;9.20;99.90;;;;;;2619570;54;19947;-78
2024/01/23 12:15:57;;;;;;;;;;;9.20;99.90;;;;;;2621267;54;19946;-79
2024/01/23 12:18:27;;;;;;;;;;;9.30;99.90;;;;;;2620203;54;20376;-78
2024/01/23 12:20:58;;;;;;;;;;;9.40;99.90;;;;;;2619427;47;19947;-77
2024/01/23 12:23:28;;;;;;;;;;;9.40;99.90;;;;;;2620019;46;19966;-77
2024/01/23 12:25:58;;;;;;;;;;;9.50;99.90;;;;;;2620022;47;20006;-80
2024/01/23 12:28:32;;;;;;;;;;;9.50;99.90;;;;;;2624481;47;19957;-81
2024/01/23 12:31:02;;;;;;;;;;;9.50;99.90;;;;;;2626152;54;19945;-83
2024/01/23 12:33:33;;;;;;;;;;;9.50;99.90;;;;;;2620200;47;19938;-81
2024/01/23 12:36:03;;;;;;;;;;;9.40;99.90;;;;;;2619783;46;19968;-81
2024/01/23 12:38:33;;;;;;;;;;;9.50;99.90;;;;;;2619325;54;19947;-80
2024/01/23 12:41:03;;;;;;;;;;;9.50;99.90;;;;;;2619535;39;20045;-80
2024/01/23 12:43:40;;;;;;;;;;;9.50;99.90;;;;;;2620078;47;20046;-80
2024/01/23 12:46:14;;;;;;;;;;;9.50;99.90;;;;;;2623876;54;20005;-81
2024/01/23 12:48:45;;;;;;;;;;;9.50;99.90;;;;;;2627399;54;19950;-81
2024/01/23 12:51:16;;;;;;;;;;;9.50;99.90;;;;;;2627096;54;20015;-82
2024/01/23 12:53:46;;;;;;;;;;;9.50;99.90;;;;;;2624976;47;19954;-79
2024/01/23 12:56:16;;;;;;;;;;;9.50;99.90;;;;;;2623428;54;19947;-85
2024/01/23 12:58:49;;;;;;;;;;;9.50;99.90;;;;;;2625952;54;19963;-84
2024/01/23 13:01:19;;;;;;;;;;;9.50;99.90;;;;;;2626574;54;19954;-83
2024/01/23 13:03:50;;;;;;;;;;;9.50;99.90;;;;;;2625980;54;19950;-83
2024/01/23 13:06:20;;;;;;;;;;;9.50;99.90;;;;;;2623403;47;19991;-82
2024/01/23 13:08:51;;;;;;;;;;;9.50;99.90;;;;;;2622005;47;19946;-84
2024/01/23 13:11:20;;;;;;;;;;;9.50;99.90;;;;;;2624742;54;19963;-85
2024/01/23 13:13:53;;;;;;;;;;;9.50;99.90;;;;;;2621998;47;20418;-78
2024/01/23 13:16:23;;;;;;;;;;;9.40;99.90;;;;;;2618242;54;19946;-78
2024/01/23 13:18:53;;;;;;;;;;;9.40;99.90;;;;;;2619143;39;20340;-78
2024/01/23 13:21:25;;;;;;;;;;;9.40;99.90;;;;;;2617993;47;19941;-80
2024/01/23 13:23:56;;;;;;;;;;;9.30;99.90;;;;;;2620345;47;19954;-79
2024/01/23 13:26:25;;;;;;;;;;;9.30;99.90;;;;;;2624944;54;19938;-82
2024/01/23 13:28:58;;;;;;;;;;;9.30;99.90;;;;;;2623381;47;19938;-80
2024/01/23 13:31:29;;;;;;;;;;;9.30;99.90;;;;;;2621963;54;19938;-80
2024/01/23 13:33:59;;;;;;;;;;;9.20;99.90;;;;;;2621301;47;20003;-80
2024/01/23 13:36:29;;;;;;;;;;;9.20;99.90;;;;;;2627096;47;19965;-80
2024/01/23 13:38:59;;;;;;;;;;;9.20;99.90;;;;;;2620986;47;19964;-77
2024/01/23 13:41:29;;;;;;;;;;;9.20;99.90;;;;;;2621016;54;19962;-77
2024/01/23 13:44:01;;;;;;;;;;;9.20;99.90;;;;;;2619825;54;19967;-76
2024/01/23 13:46:31;;;;;;;;;;;9.20;99.90;;;;;;2611258;54;19953;-78
2024/01/23 13:49:03;;;;;;;;;;;9.10;99.90;;;;;;2610870;47;19954;-78
2024/01/23 13:51:33;;;;;;;;;;;9.10;99.90;;;;;;2611206;47;20002;-78
2024/01/23 13:54:03;;;;;;;;;;;9.10;99.90;;;;;;2609758;54;19950;-78
2024/01/23 13:56:34;;;;;;;;;;;9.00;99.90;;;;;;2616720;54;19945;-78
2024/01/23 13:59:07;;;;;;;;;;;9.00;99.90;;;;;;2616865;47;19969;-79
2024/01/23 14:01:41;;;;;;;;;;;9.00;99.90;;;;;;2618124;54;19947;-79
2024/01/23 14:04:11;;;;;;;;;;;9.00;99.90;;;;;;2622018;54;19953;-77
2024/01/23 14:06:41;;;;;;;;;;;9.00;99.90;;;;;;2618869;54;19942;-80
2024/01/23 14:09:11;;;;;;;;;;;9.00;99.90;;;;;;2614188;54;19947;-78
2024/01/23 14:11:41;;;;;;;;;;;9.00;99.90;;;;;;2611202;54;20403;-77
2024/01/23 14:14:13;;;;;;;;;;;9.00;99.90;;;;;;2612091;54;19946;-78
2024/01/23 14:16:43;;;;;;;;;;;9.00;99.90;;;;;;2611365;54;20054;-78
2024/01/23 14:19:13;;;;;;;;;;;9.00;99.90;;;;;;2608682;39;20957;-77
2024/01/23 14:21:44;;;;;;;;;;;9.00;99.90;;;;;;2609867;54;21353;-77
2024/01/23 14:24:15;;;;;;;;;;;8.90;99.90;;;;;;2613111;54;19955;-78
2024/01/23 14:26:45;;;;;;;;;;;8.80;99.90;;;;;;2612045;47;19950;-77
2024/01/23 14:29:19;;;;;;;;;;;9.10;99.90;;;;;;2610444;47;19974;-78
2024/01/23 14:31:49;;;;;;;;;;;9.20;99.90;;;;;;2610720;54;19951;-78
2024/01/23 14:34:22;;;;;;;;;;;9.00;99.90;;;;;;2612501;47;19946;-79
2024/01/23 14:36:52;;;;;;;;;;;9.00;99.90;;;;;;2611175;48;19946;-78
2024/01/23 14:39:22;;;;;;;;;;;9.10;99.90;;;;;;2611072;54;19954;-78
2024/01/23 14:41:53;;;;;;;;;;;9.00;99.90;;;;;;2611197;47;19950;-78
2024/01/23 14:44:26;;;;;;;;;;;9.10;99.90;;;;;;2614308;54;20010;-78
2024/01/23 14:46:56;;;;;;;;;;;9.10;99.90;;;;;;2617078;47;19992;-78
2024/01/23 14:49:26;;;;;;;;;;;9.10;99.90;;;;;;2611009;54;19957;-78
2024/01/23 14:51:56;;;;;;;;;;;9.20;99.90;;;;;;2610448;46;19966;-79